sensor_id;sensor_type;location;lat;lon;timestamp;P1;durP1;ratioP1;P2;durP2;ratioP2
78079;SDS011;67298;51.322;5.958;2023-12-22T00:04:25;6533.7;;;6227.1;;
78079;SDS011;67298;51.322;5.958;2023-12-22T00:09:05;4380.9;;;6227.1;;
78079;SDS011;67298;51.322;5.958;2023-12-22T00:13:44;4399.4;;;6227.1;;
78079;SDS011;67298;51.322;5.958;2023-12-22T00:18:24;6227.1;;;17.2;;
78079;SDS011;67298;51.322;5.958;2023-12-22T00:23:03;6227.1;;;16.5;;
78079;SDS011;67298;51.322;5.958;2023-12-22T00:27:42;13.3;;;7.8;;
78079;SDS011;67298;51.322;5.958;2023-12-22T00:32:24;14.8;;;8.6;;
78079;SDS011;67298;51.322;5.958;2023-12-22T00:37:03;13.8;;;7.0;;
78079;SDS011;67298;51.322;5.958;2023-12-22T00:41:43;7.7;;;4932.2;;
78079;SDS011;67298;51.322;5.958;2023-12-22T00:46:24;3.4;;;4932.2;;
78079;SDS011;67298;51.322;5.958;2023-12-22T00:51:04;4932.2;;;4403.0;;
78079;SDS011;67298;51.322;5.958;2023-12-22T00:55:43;4932.2;;;4382.1;;
78079;SDS011;67298;51.322;5.958;2023-12-22T01:00:22;4932.2;;;4383.0;;
78079;SDS011;67298;51.322;5.958;2023-12-22T01:05:02;4399.5;;;6227.1;;
78079;SDS011;67298;51.322;5.958;2023-12-22T01:09:41;4394.2;;;6227.1;;
78079;SDS011;67298;51.322;5.958;2023-12-22T01:14:21;6227.1;;;16.7;;
78079;SDS011;67298;51.322;5.958;2023-12-22T01:19:00;6227.1;;;16.2;;
78079;SDS011;67298;51.322;5.958;2023-12-22T01:23:39;15.7;;;8.9;;
78079;SDS011;67298;51.322;5.958;2023-12-22T01:28:19;15.1;;;7.9;;
78079;SDS011;67298;51.322;5.958;2023-12-22T01:32:58;10.9;;;6.1;;
78079;SDS011;67298;51.322;5.958;2023-12-22T01:37:38;8.1;;;4932.2;;
78079;SDS011;67298;51.322;5.958;2023-12-22T01:42:17;8.2;;;4932.2;;
78079;SDS011;67298;51.322;5.958;2023-12-22T01:46:57;4932.2;;;4383.4;;
78079;SDS011;67298;51.322;5.958;2023-12-22T01:51:36;4932.2;;;4379.1;;
78079;SDS011;67298;51.322;5.958;2023-12-22T01:56:16;4932.2;;;4378.1;;
78079;SDS011;67298;51.322;5.958;2023-12-22T02:00:55;4383.4;;;6227.1;;
78079;SDS011;67298;51.322;5.958;2023-12-22T02:05:35;6533.7;;;6227.1;;
78079;SDS011;67298;51.322;5.958;2023-12-22T02:10:14;6227.1;;;11.2;;
78079;SDS011;67298;51.322;5.958;2023-12-22T02:14:53;6227.1;;;18.0;;
78079;SDS011;67298;51.322;5.958;2023-12-22T02:19:33;6227.1;;;16.7;;
78079;SDS011;67298;51.322;5.958;2023-12-22T02:24:12;15.1;;;9.4;;
78079;SDS011;67298;51.322;5.958;2023-12-22T02:28:52;12.6;;;7.4;;
78079;SDS011;67298;51.322;5.958;2023-12-22T02:33:31;10.8;;;4932.2;;
78079;SDS011;67298;51.322;5.958;2023-12-22T02:38:11;11.0;;;4932.2;;
78079;SDS011;67298;51.322;5.958;2023-12-22T02:42:50;4932.2;;;4383.6;;
78079;SDS011;67298;51.322;5.958;2023-12-22T02:47:29;4932.2;;;4386.6;;
78079;SDS011;67298;51.322;5.958;2023-12-22T02:52:11;4932.2;;;4402.0;;
78079;SDS011;67298;51.322;5.958;2023-12-22T02:56:51;4384.0;;;6227.1;;
78079;SDS011;67298;51.322;5.958;2023-12-22T03:01:30;4383.8;;;6227.1;;
78079;SDS011;67298;51.322;5.958;2023-12-22T03:06:10;6227.1;;;0.0;;
78079;SDS011;67298;51.322;5.958;2023-12-22T03:10:49;6227.1;;;18.3;;
78079;SDS011;67298;51.322;5.958;2023-12-22T03:15:29;6227.1;;;12.6;;
78079;SDS011;67298;51.322;5.958;2023-12-22T03:20:08;17.9;;;8.3;;
78079;SDS011;67298;51.322;5.958;2023-12-22T03:24:47;18.3;;;9.9;;
78079;SDS011;67298;51.322;5.958;2023-12-22T03:29:27;7.9;;;4932.2;;
78079;SDS011;67298;51.322;5.958;2023-12-22T03:34:09;9.9;;;4932.2;;
78079;SDS011;67298;51.322;5.958;2023-12-22T03:38:51;9.2;;;4932.2;;
78079;SDS011;67298;51.322;5.958;2023-12-22T03:43:31;4932.2;;;4384.7;;
78079;SDS011;67298;51.322;5.958;2023-12-22T03:48:10;4932.2;;;4383.4;;
78079;SDS011;67298;51.322;5.958;2023-12-22T03:52:50;4380.4;;;6227.1;;
78079;SDS011;67298;51.322;5.958;2023-12-22T03:57:29;4382.9;;;6227.1;;
78079;SDS011;67298;51.322;5.958;2023-12-22T04:02:11;4384.5;;;6227.1;;
78079;SDS011;67298;51.322;5.958;2023-12-22T04:06:50;6227.1;;;17.8;;
78079;SDS011;67298;51.322;5.958;2023-12-22T04:11:29;6227.1;;;11.4;;
78079;SDS011;67298;51.322;5.958;2023-12-22T04:16:09;18.9;;;10.2;;
78079;SDS011;67298;51.322;5.958;2023-12-22T04:20:48;19.3;;;10.4;;
78079;SDS011;67298;51.322;5.958;2023-12-22T04:25:28;9.4;;;4932.2;;
78079;SDS011;67298;51.322;5.958;2023-12-22T04:30:07;11.3;;;4932.2;;
78079;SDS011;67298;51.322;5.958;2023-12-22T04:34:46;9.1;;;4932.2;;
78079;SDS011;67298;51.322;5.958;2023-12-22T04:39:26;4932.2;;;4402.3;;
78079;SDS011;67298;51.322;5.958;2023-12-22T04:44:05;4932.2;;;4381.5;;
78079;SDS011;67298;51.322;5.958;2023-12-22T04:48:45;4383.4;;;6227.1;;
78079;SDS011;67298;51.322;5.958;2023-12-22T04:53:24;4385.1;;;6227.1;;
78079;SDS011;67298;51.322;5.958;2023-12-22T04:58:04;4391.6;;;6227.1;;
78079;SDS011;67298;51.322;5.958;2023-12-22T05:02:43;6227.1;;;18.2;;
78079;SDS011;67298;51.322;5.958;2023-12-22T05:07:22;6227.1;;;0.0;;
78079;SDS011;67298;51.322;5.958;2023-12-22T05:12:02;18.1;;;9.6;;
78079;SDS011;67298;51.322;5.958;2023-12-22T05:16:41;18.5;;;9.9;;
78079;SDS011;67298;51.322;5.958;2023-12-22T05:21:21;15.4;;;8.2;;
78079;SDS011;67298;51.322;5.958;2023-12-22T05:26:00;8.7;;;4932.2;;
78079;SDS011;67298;51.322;5.958;2023-12-22T05:30:39;7.6;;;4932.2;;
78079;SDS011;67298;51.322;5.958;2023-12-22T05:35:19;4932.2;;;4384.5;;
78079;SDS011;67298;51.322;5.958;2023-12-22T05:39:58;4932.2;;;4390.9;;
78079;SDS011;67298;51.322;5.958;2023-12-22T05:44:38;4383.9;;;6227.1;;
78079;SDS011;67298;51.322;5.958;2023-12-22T05:49:18;4381.5;;;6227.1;;
78079;SDS011;67298;51.322;5.958;2023-12-22T05:53:59;4379.3;;;6227.1;;
78079;SDS011;67298;51.322;5.958;2023-12-22T05:58:38;6227.1;;;10.4;;
78079;SDS011;67298;51.322;5.958;2023-12-22T06:03:18;6227.1;;;13.8;;
78079;SDS011;67298;51.322;5.958;2023-12-22T06:07:57;18.0;;;10.4;;
78079;SDS011;67298;51.322;5.958;2023-12-22T06:12:37;17.3;;;9.7;;
78079;SDS011;67298;51.322;5.958;2023-12-22T06:17:16;19.7;;;10.2;;
78079;SDS011;67298;51.322;5.958;2023-12-22T06:21:56;9.2;;;4932.2;;
78079;SDS011;67298;51.322;5.958;2023-12-22T06:26:35;10.1;;;4932.2;;
78079;SDS011;67298;51.322;5.958;2023-12-22T06:31:15;4932.2;;;4385.2;;
78079;SDS011;67298;51.322;5.958;2023-12-22T06:35:54;4932.2;;;4382.2;;
78079;SDS011;67298;51.322;5.958;2023-12-22T06:40:33;4932.2;;;4380.7;;
78079;SDS011;67298;51.322;5.958;2023-12-22T06:45:13;4381.4;;;6227.1;;
78079;SDS011;67298;51.322;5.958;2023-12-22T06:49:52;4383.4;;;6227.1;;
78079;SDS011;67298;51.322;5.958;2023-12-22T06:54:32;6227.1;;;11.7;;
78079;SDS011;67298;51.322;5.958;2023-12-22T06:59:11;6227.1;;;14.8;;
78079;SDS011;67298;51.322;5.958;2023-12-22T07:03:51;6227.1;;;17.3;;
78079;SDS011;67298;51.322;5.958;2023-12-22T07:08:30;13.5;;;7.4;;
78079;SDS011;67298;51.322;5.958;2023-12-22T07:13:09;11.5;;;6.2;;
78079;SDS011;67298;51.322;5.958;2023-12-22T07:17:49;7.8;;;4932.2;;
78079;SDS011;67298;51.322;5.958;2023-12-22T07:22:28;8.5;;;4932.2;;
78079;SDS011;67298;51.322;5.958;2023-12-22T07:27:08;4932.2;;;4381.4;;
78079;SDS011;67298;51.322;5.958;2023-12-22T07:31:47;4932.2;;;4380.2;;
78079;SDS011;67298;51.322;5.958;2023-12-22T07:36:27;4932.2;;;4381.7;;
78079;SDS011;67298;51.322;5.958;2023-12-22T07:41:06;4377.6;;;6227.1;;
78079;SDS011;67298;51.322;5.958;2023-12-22T07:45:51;4381.0;;;6227.1;;
78079;SDS011;67298;51.322;5.958;2023-12-22T07:50:30;6227.1;;;0.1;;
78079;SDS011;67298;51.322;5.958;2023-12-22T07:55:10;6227.1;;;15.1;;
78079;SDS011;67298;51.322;5.958;2023-12-22T07:59:49;6227.1;;;16.5;;
78079;SDS011;67298;51.322;5.958;2023-12-22T08:04:28;15.3;;;8.5;;
78079;SDS011;67298;51.322;5.958;2023-12-22T08:09:08;18.1;;;9.5;;
78079;SDS011;67298;51.322;5.958;2023-12-22T08:14:05;5.2;;;4932.2;;
78079;SDS011;67298;51.322;5.958;2023-12-22T08:18:45;8.8;;;4932.2;;
78079;SDS011;67298;51.322;5.958;2023-12-22T08:23:24;7.2;;;4932.2;;
78079;SDS011;67298;51.322;5.958;2023-12-22T08:28:06;4932.2;;;4380.6;;
78079;SDS011;67298;51.322;5.958;2023-12-22T08:32:45;4932.2;;;4387.1;;
78079;SDS011;67298;51.322;5.958;2023-12-22T08:37:24;4380.9;;;6227.1;;
78079;SDS011;67298;51.322;5.958;2023-12-22T08:42:08;4382.2;;;6227.1;;
78079;SDS011;67298;51.322;5.958;2023-12-22T08:46:48;6227.1;;;14.9;;
78079;SDS011;67298;51.322;5.958;2023-12-22T08:51:29;6227.1;;;14.1;;
78079;SDS011;67298;51.322;5.958;2023-12-22T08:56:08;6227.1;;;15.6;;
78079;SDS011;67298;51.322;5.958;2023-12-22T09:00:47;15.6;;;8.0;;
78079;SDS011;67298;51.322;5.958;2023-12-22T09:05:27;17.7;;;9.4;;
78079;SDS011;67298;51.322;5.958;2023-12-22T09:10:06;26.2;;;5060.2;;
78079;SDS011;67298;51.322;5.958;2023-12-22T09:14:46;8.7;;;4932.2;;
78079;SDS011;67298;51.322;5.958;2023-12-22T09:19:25;8.2;;;4932.2;;
78079;SDS011;67298;51.322;5.958;2023-12-22T09:24:04;4932.2;;;4380.4;;
78079;SDS011;67298;51.322;5.958;2023-12-22T09:28:44;4932.2;;;4381.6;;
78079;SDS011;67298;51.322;5.958;2023-12-22T09:33:24;4390.3;;;6227.1;;
78079;SDS011;67298;51.322;5.958;2023-12-22T09:38:03;4380.9;;;6227.1;;
78079;SDS011;67298;51.322;5.958;2023-12-22T09:42:44;4381.5;;;6227.1;;
78079;SDS011;67298;51.322;5.958;2023-12-22T09:47:24;6227.1;;;14.5;;
78079;SDS011;67298;51.322;5.958;2023-12-22T09:52:03;6227.1;;;0.1;;
78079;SDS011;67298;51.322;5.958;2023-12-22T09:56:43;13.2;;;7.3;;
78079;SDS011;67298;51.322;5.958;2023-12-22T10:01:22;16.1;;;8.7;;
78079;SDS011;67298;51.322;5.958;2023-12-22T10:06:01;14.2;;;8.9;;
78079;SDS011;67298;51.322;5.958;2023-12-22T10:10:43;8.0;;;4932.2;;
78079;SDS011;67298;51.322;5.958;2023-12-22T10:15:22;7.4;;;4932.2;;
78079;SDS011;67298;51.322;5.958;2023-12-22T10:20:01;4932.2;;;4383.0;;
78079;SDS011;67298;51.322;5.958;2023-12-22T10:24:41;4932.2;;;4381.1;;
78079;SDS011;67298;51.322;5.958;2023-12-22T10:29:21;4380.9;;;6227.1;;
78079;SDS011;67298;51.322;5.958;2023-12-22T10:34:00;4383.3;;;6227.1;;
78079;SDS011;67298;51.322;5.958;2023-12-22T10:38:40;4401.7;;;6227.1;;
78079;SDS011;67298;51.322;5.958;2023-12-22T10:43:19;6227.1;;;19.5;;
78079;SDS011;67298;51.322;5.958;2023-12-22T10:47:58;6227.1;;;19.6;;
78079;SDS011;67298;51.322;5.958;2023-12-22T10:52:39;15.4;;;8.7;;
78079;SDS011;67298;51.322;5.958;2023-12-22T10:57:18;16.3;;;8.0;;
78079;SDS011;67298;51.322;5.958;2023-12-22T11:01:58;14.8;;;8.3;;
78079;SDS011;67298;51.322;5.958;2023-12-22T11:06:39;7.9;;;4932.2;;
78079;SDS011;67298;51.322;5.958;2023-12-22T11:11:19;26.2;;;5060.2;;
78079;SDS011;67298;51.322;5.958;2023-12-22T11:16:00;4932.2;;;4385.2;;
78079;SDS011;67298;51.322;5.958;2023-12-22T11:20:40;4932.2;;;4380.3;;
78079;SDS011;67298;51.322;5.958;2023-12-22T11:25:19;4932.2;;;4383.9;;
78079;SDS011;67298;51.322;5.958;2023-12-22T11:30:00;4378.3;;;6227.1;;
78079;SDS011;67298;51.322;5.958;2023-12-22T11:34:40;4393.1;;;6227.1;;
78079;SDS011;67298;51.322;5.958;2023-12-22T11:39:20;6227.1;;;15.9;;
78079;SDS011;67298;51.322;5.958;2023-12-22T11:44:00;6227.1;;;14.1;;
78079;SDS011;67298;51.322;5.958;2023-12-22T11:48:39;14.9;;;8.2;;
78079;SDS011;67298;51.322;5.958;2023-12-22T11:53:19;15.1;;;8.3;;
78079;SDS011;67298;51.322;5.958;2023-12-22T11:57:58;14.6;;;6.9;;
78079;SDS011;67298;51.322;5.958;2023-12-22T12:02:38;6.9;;;4932.2;;
78079;SDS011;67298;51.322;5.958;2023-12-22T12:07:20;9.1;;;4932.2;;
78079;SDS011;67298;51.322;5.958;2023-12-22T12:12:00;5060.2;;;4379.8;;
78079;SDS011;67298;51.322;5.958;2023-12-22T12:16:40;4932.2;;;4378.7;;
78079;SDS011;67298;51.322;5.958;2023-12-22T12:21:20;4932.2;;;4379.5;;
78079;SDS011;67298;51.322;5.958;2023-12-22T12:25:59;4379.8;;;6227.1;;
78079;SDS011;67298;51.322;5.958;2023-12-22T12:30:42;4381.6;;;6227.1;;
78079;SDS011;67298;51.322;5.958;2023-12-22T12:35:22;6227.1;;;7.2;;
78079;SDS011;67298;51.322;5.958;2023-12-22T12:40:02;6227.1;;;14.0;;
78079;SDS011;67298;51.322;5.958;2023-12-22T12:44:43;6227.1;;;15.0;;
78079;SDS011;67298;51.322;5.958;2023-12-22T12:49:23;16.1;;;8.2;;
78079;SDS011;67298;51.322;5.958;2023-12-22T12:54:04;14.6;;;8.2;;
78079;SDS011;67298;51.322;5.958;2023-12-22T12:59:16;7.6;;;4932.2;;
78079;SDS011;67298;51.322;5.958;2023-12-22T13:03:56;8.2;;;4932.2;;
78079;SDS011;67298;51.322;5.958;2023-12-22T13:08:35;6.6;;;4932.2;;
78079;SDS011;67298;51.322;5.958;2023-12-22T13:13:15;4932.2;;;4379.1;;
78079;SDS011;67298;51.322;5.958;2023-12-22T13:17:56;4932.2;;;4400.2;;
78079;SDS011;67298;51.322;5.958;2023-12-22T13:22:35;4401.1;;;6227.1;;
78079;SDS011;67298;51.322;5.958;2023-12-22T13:27:15;4378.2;;;6227.1;;
78079;SDS011;67298;51.322;5.958;2023-12-22T13:31:55;6227.1;;;15.3;;
78079;SDS011;67298;51.322;5.958;2023-12-22T13:36:36;6227.1;;;13.8;;
78079;SDS011;67298;51.322;5.958;2023-12-22T13:41:15;6227.1;;;11.6;;
78079;SDS011;67298;51.322;5.958;2023-12-22T13:46:01;13.0;;;6.5;;
78079;SDS011;67298;51.322;5.958;2023-12-22T13:50:41;14.1;;;7.2;;
78079;SDS011;67298;51.322;5.958;2023-12-22T13:55:22;26.2;;;5060.2;;
78079;SDS011;67298;51.322;5.958;2023-12-22T14:00:02;7.7;;;4932.2;;
78079;SDS011;67298;51.322;5.958;2023-12-22T14:04:42;8.2;;;4932.2;;
78079;SDS011;67298;51.322;5.958;2023-12-22T14:09:22;4932.2;;;4378.4;;
78079;SDS011;67298;51.322;5.958;2023-12-22T14:14:05;5060.2;;;4381.8;;
78079;SDS011;67298;51.322;5.958;2023-12-22T14:18:45;4379.0;;;6227.1;;
78079;SDS011;67298;51.322;5.958;2023-12-22T14:23:25;4382.2;;;6227.1;;
78079;SDS011;67298;51.322;5.958;2023-12-22T14:28:04;4378.4;;;6227.1;;
78079;SDS011;67298;51.322;5.958;2023-12-22T14:32:44;6227.1;;;17.5;;
78079;SDS011;67298;51.322;5.958;2023-12-22T14:37:26;6227.1;;;13.5;;
78079;SDS011;67298;51.322;5.958;2023-12-22T14:42:06;15.9;;;8.7;;
78079;SDS011;67298;51.322;5.958;2023-12-22T14:46:47;15.5;;;8.8;;
78079;SDS011;67298;51.322;5.958;2023-12-22T14:51:26;8.5;;;4932.2;;
78079;SDS011;67298;51.322;5.958;2023-12-22T14:56:13;8.6;;;4932.2;;
78079;SDS011;67298;51.322;5.958;2023-12-22T15:00:53;7.7;;;4932.2;;
78079;SDS011;67298;51.322;5.958;2023-12-22T15:05:45;4932.2;;;4403.1;;
78079;SDS011;67298;51.322;5.958;2023-12-22T15:10:25;4932.2;;;4383.0;;
78079;SDS011;67298;51.322;5.958;2023-12-22T15:15:05;4382.2;;;6227.1;;
78079;SDS011;67298;51.322;5.958;2023-12-22T15:19:44;4383.5;;;6227.1;;
78079;SDS011;67298;51.322;5.958;2023-12-22T15:24:24;4378.1;;;6227.1;;
78079;SDS011;67298;51.322;5.958;2023-12-22T15:29:03;6227.1;;;17.0;;
78079;SDS011;67298;51.322;5.958;2023-12-22T15:33:43;6227.1;;;18.2;;
78079;SDS011;67298;51.322;5.958;2023-12-22T15:38:22;7.0;;;6.5;;
78079;SDS011;67298;51.322;5.958;2023-12-22T15:43:03;17.2;;;9.7;;
78079;SDS011;67298;51.322;5.958;2023-12-22T15:47:43;16.7;;;8.8;;
78079;SDS011;67298;51.322;5.958;2023-12-22T15:52:22;8.0;;;4932.2;;
78079;SDS011;67298;51.322;5.958;2023-12-22T15:57:04;26.2;;;5060.2;;
78079;SDS011;67298;51.322;5.958;2023-12-22T16:01:43;4932.2;;;4382.3;;
78079;SDS011;67298;51.322;5.958;2023-12-22T16:06:23;4932.2;;;4381.6;;
78079;SDS011;67298;51.322;5.958;2023-12-22T16:11:02;4932.2;;;4378.7;;
78079;SDS011;67298;51.322;5.958;2023-12-22T16:15:41;4386.4;;;6227.1;;
78079;SDS011;67298;51.322;5.958;2023-12-22T16:20:21;4380.2;;;6227.1;;
78079;SDS011;67298;51.322;5.958;2023-12-22T16:25:00;6227.1;;;17.0;;
78079;SDS011;67298;51.322;5.958;2023-12-22T16:29:40;6227.1;;;17.3;;
78079;SDS011;67298;51.322;5.958;2023-12-22T16:34:19;17.4;;;9.6;;
78079;SDS011;67298;51.322;5.958;2023-12-22T16:38:59;16.2;;;9.8;;
78079;SDS011;67298;51.322;5.958;2023-12-22T16:43:38;16.3;;;8.0;;
78079;SDS011;67298;51.322;5.958;2023-12-22T16:48:18;10.5;;;4932.2;;
78079;SDS011;67298;51.322;5.958;2023-12-22T16:52:57;26.2;;;5060.2;;
78079;SDS011;67298;51.322;5.958;2023-12-22T16:57:36;5060.2;;;6533.7;;
78079;SDS011;67298;51.322;5.958;2023-12-22T17:02:16;4932.2;;;4385.8;;
78079;SDS011;67298;51.322;5.958;2023-12-22T17:06:57;4932.2;;;4383.0;;
78079;SDS011;67298;51.322;5.958;2023-12-22T17:11:36;4385.0;;;6227.1;;
78079;SDS011;67298;51.322;5.958;2023-12-22T17:16:16;4387.9;;;6227.1;;
78079;SDS011;67298;51.322;5.958;2023-12-22T17:20:55;6227.1;;;13.7;;
78079;SDS011;67298;51.322;5.958;2023-12-22T17:25:35;6227.1;;;18.8;;
78079;SDS011;67298;51.322;5.958;2023-12-22T17:30:14;6227.1;;;25.3;;
78079;SDS011;67298;51.322;5.958;2023-12-22T17:34:53;16.7;;;9.3;;
78079;SDS011;67298;51.322;5.958;2023-12-22T17:39:33;3.0;;;2.5;;
78079;SDS011;67298;51.322;5.958;2023-12-22T17:44:20;10.9;;;4932.2;;
78079;SDS011;67298;51.322;5.958;2023-12-22T17:48:59;11.0;;;4932.2;;
78079;SDS011;67298;51.322;5.958;2023-12-22T17:53:39;4932.2;;;4932.2;;
78079;SDS011;67298;51.322;5.958;2023-12-22T17:58:18;4932.2;;;4383.4;;
78079;SDS011;67298;51.322;5.958;2023-12-22T18:02:58;4932.2;;;4378.4;;
78079;SDS011;67298;51.322;5.958;2023-12-22T18:07:37;4386.7;;;6227.1;;
78079;SDS011;67298;51.322;5.958;2023-12-22T18:12:17;4385.0;;;6227.1;;
78079;SDS011;67298;51.322;5.958;2023-12-22T18:16:56;6227.1;;;17.4;;
78079;SDS011;67298;51.322;5.958;2023-12-22T18:21:35;6227.1;;;21.7;;
78079;SDS011;67298;51.322;5.958;2023-12-22T18:26:15;6227.1;;;16.7;;
78079;SDS011;67298;51.322;5.958;2023-12-22T18:30:54;16.2;;;9.2;;
78079;SDS011;67298;51.322;5.958;2023-12-22T18:35:34;17.6;;;10.5;;
78079;SDS011;67298;51.322;5.958;2023-12-22T18:40:13;4.9;;;4932.2;;
78079;SDS011;67298;51.322;5.958;2023-12-22T18:44:53;10.2;;;4932.2;;
78079;SDS011;67298;51.322;5.958;2023-12-22T18:49:32;9.3;;;4932.2;;
78079;SDS011;67298;51.322;5.958;2023-12-22T18:54:11;4932.2;;;4385.2;;
78079;SDS011;67298;51.322;5.958;2023-12-22T18:58:51;5060.2;;;6533.7;;
78079;SDS011;67298;51.322;5.958;2023-12-22T19:03:30;4381.7;;;6227.1;;
78079;SDS011;67298;51.322;5.958;2023-12-22T19:08:10;4383.3;;;6227.1;;
78079;SDS011;67298;51.322;5.958;2023-12-22T19:12:49;4384.9;;;6227.1;;
78079;SDS011;67298;51.322;5.958;2023-12-22T19:17:28;6227.1;;;19.0;;
78079;SDS011;67298;51.322;5.958;2023-12-22T19:22:08;6227.1;;;17.6;;
78079;SDS011;67298;51.322;5.958;2023-12-22T19:26:47;17.1;;;10.8;;
78079;SDS011;67298;51.322;5.958;2023-12-22T19:31:27;18.3;;;10.6;;
78079;SDS011;67298;51.322;5.958;2023-12-22T19:36:06;11.5;;;4932.2;;
78079;SDS011;67298;51.322;5.958;2023-12-22T19:40:45;10.5;;;4932.2;;
78079;SDS011;67298;51.322;5.958;2023-12-22T19:45:25;10.2;;;4932.2;;
78079;SDS011;67298;51.322;5.958;2023-12-22T19:50:04;4932.2;;;4388.7;;
78079;SDS011;67298;51.322;5.958;2023-12-22T19:54:44;4932.2;;;4390.3;;
78079;SDS011;67298;51.322;5.958;2023-12-22T19:59:23;6533.7;;;6227.1;;
78079;SDS011;67298;51.322;5.958;2023-12-22T20:04:02;4385.4;;;6227.1;;
78079;SDS011;67298;51.322;5.958;2023-12-22T20:08:42;4385.4;;;6227.1;;
78079;SDS011;67298;51.322;5.958;2023-12-22T20:13:21;6227.1;;;19.5;;
78079;SDS011;67298;51.322;5.958;2023-12-22T20:18:01;6227.1;;;21.6;;
78079;SDS011;67298;51.322;5.958;2023-12-22T20:22:40;14.3;;;7.8;;
78079;SDS011;67298;51.322;5.958;2023-12-22T20:27:19;19.7;;;10.3;;
78079;SDS011;67298;51.322;5.958;2023-12-22T20:31:59;19.0;;;10.3;;
78079;SDS011;67298;51.322;5.958;2023-12-22T20:36:38;9.9;;;4932.2;;
78079;SDS011;67298;51.322;5.958;2023-12-22T20:41:18;7.4;;;4932.2;;
78079;SDS011;67298;51.322;5.958;2023-12-22T20:45:59;4932.2;;;4378.5;;
78079;SDS011;67298;51.322;5.958;2023-12-22T20:50:39;4932.2;;;4383.2;;
78079;SDS011;67298;51.322;5.958;2023-12-22T20:55:18;4932.2;;;4384.1;;
78079;SDS011;67298;51.322;5.958;2023-12-22T20:59:57;4386.1;;;6227.1;;
78079;SDS011;67298;51.322;5.958;2023-12-22T21:04:38;4379.3;;;6227.1;;
78079;SDS011;67298;51.322;5.958;2023-12-22T21:09:17;6227.1;;;17.6;;
78079;SDS011;67298;51.322;5.958;2023-12-22T21:13:56;6227.1;;;18.8;;
78079;SDS011;67298;51.322;5.958;2023-12-22T21:18:36;19.8;;;10.8;;
78079;SDS011;67298;51.322;5.958;2023-12-22T21:23:15;21.3;;;10.6;;
78079;SDS011;67298;51.322;5.958;2023-12-22T21:27:54;19.0;;;9.8;;
78079;SDS011;67298;51.322;5.958;2023-12-22T21:32:36;10.5;;;4932.2;;
78079;SDS011;67298;51.322;5.958;2023-12-22T21:37:16;11.6;;;4932.2;;
78079;SDS011;67298;51.322;5.958;2023-12-22T21:41:55;4932.2;;;4383.4;;
78079;SDS011;67298;51.322;5.958;2023-12-22T21:46:35;4932.2;;;4390.3;;
78079;SDS011;67298;51.322;5.958;2023-12-22T21:51:14;4932.2;;;4383.6;;
78079;SDS011;67298;51.322;5.958;2023-12-22T21:55:53;4389.3;;;6227.1;;
78079;SDS011;67298;51.322;5.958;2023-12-22T22:00:33;6533.7;;;6227.1;;
78079;SDS011;67298;51.322;5.958;2023-12-22T22:05:12;6227.1;;;21.4;;
78079;SDS011;67298;51.322;5.958;2023-12-22T22:09:52;6227.1;;;21.4;;
78079;SDS011;67298;51.322;5.958;2023-12-22T22:14:31;6227.1;;;22.4;;
78079;SDS011;67298;51.322;5.958;2023-12-22T22:19:13;21.0;;;10.4;;
78079;SDS011;67298;51.322;5.958;2023-12-22T22:23:52;15.0;;;10.6;;
78079;SDS011;67298;51.322;5.958;2023-12-22T22:28:32;9.1;;;4932.2;;
78079;SDS011;67298;51.322;5.958;2023-12-22T22:33:11;10.9;;;4932.2;;
78079;SDS011;67298;51.322;5.958;2023-12-22T22:37:50;4932.2;;;4389.2;;
78079;SDS011;67298;51.322;5.958;2023-12-22T22:42:30;4932.2;;;4386.8;;
78079;SDS011;67298;51.322;5.958;2023-12-22T22:47:10;4932.2;;;4388.3;;
78079;SDS011;67298;51.322;5.958;2023-12-22T22:51:49;4932.2;;;4389.0;;
78079;SDS011;67298;51.322;5.958;2023-12-22T22:56:28;4932.2;;;4382.2;;
78079;SDS011;67298;51.322;5.958;2023-12-22T23:01:08;6533.7;;;6227.1;;
78079;SDS011;67298;51.322;5.958;2023-12-22T23:05:47;4389.1;;;6227.1;;
78079;SDS011;67298;51.322;5.958;2023-12-22T23:10:27;4383.9;;;6227.1;;
78079;SDS011;67298;51.322;5.958;2023-12-22T23:15:06;6227.1;;;22.1;;
78079;SDS011;67298;51.322;5.958;2023-12-22T23:19:45;6227.1;;;22.2;;
78079;SDS011;67298;51.322;5.958;2023-12-22T23:24:25;10.6;;;8.2;;
78079;SDS011;67298;51.322;5.958;2023-12-22T23:29:04;18.1;;;9.5;;
78079;SDS011;67298;51.322;5.958;2023-12-22T23:33:44;20.1;;;10.2;;
78079;SDS011;67298;51.322;5.958;2023-12-22T23:38:23;10.4;;;4932.2;;
78079;SDS011;67298;51.322;5.958;2023-12-22T23:43:02;5.8;;;4932.2;;
78079;SDS011;67298;51.322;5.958;2023-12-22T23:47:42;4932.2;;;4388.9;;
78079;SDS011;67298;51.322;5.958;2023-12-22T23:52:21;4932.2;;;4390.6;;
78079;SDS011;67298;51.322;5.958;2023-12-22T23:57:01;4932.2;;;4389.5;;
